createdAt,value
2017-12-16T00:00:51.796Z,29.80
2017-12-16T00:01:51.783Z,30.40
2017-12-16T00:02:51.776Z,31.30
2017-12-16T00:03:51.790Z,30.40
2017-12-16T00:04:51.752Z,31.20
2017-12-16T00:05:51.739Z,30.70
2017-12-16T00:06:51.721Z,29.90
2017-12-16T00:07:51.710Z,30.30
2017-12-16T00:08:51.697Z,31.00
2017-12-16T00:09:51.684Z,30.40
2017-12-16T00:10:51.676Z,31.90
2017-12-16T00:11:51.663Z,32.10
2017-12-16T00:12:51.650Z,32.70
2017-12-16T00:13:51.638Z,31.80
2017-12-16T00:14:51.627Z,32.90
2017-12-16T00:15:51.614Z,32.30
2017-12-16T00:16:51.602Z,32.60
2017-12-16T00:17:51.588Z,32.10
2017-12-16T00:18:51.574Z,31.70
2017-12-16T00:19:51.559Z,32.00
2017-12-16T00:20:51.547Z,32.30
2017-12-16T00:21:51.535Z,32.30
2017-12-16T00:22:51.528Z,33.20
2017-12-16T00:23:51.510Z,32.90
2017-12-16T00:24:51.505Z,31.90
2017-12-16T00:25:51.483Z,32.60
2017-12-16T00:26:51.482Z,32.50
2017-12-16T00:27:51.465Z,30.70
2017-12-16T00:28:51.452Z,31.00
2017-12-16T00:29:51.438Z,31.40
2017-12-16T00:30:51.427Z,30.10
2017-12-16T00:31:51.416Z,32.30
2017-12-16T00:32:51.403Z,29.90
2017-12-16T00:33:51.392Z,30.90
2017-12-16T00:34:51.372Z,31.50
2017-12-16T00:35:51.360Z,32.50
2017-12-16T00:36:51.348Z,32.60
2017-12-16T00:37:51.335Z,31.50
2017-12-16T00:38:51.322Z,31.80
2017-12-16T00:39:51.310Z,31.50
2017-12-16T00:40:51.298Z,31.40
2017-12-16T00:41:51.283Z,32.70
2017-12-16T00:42:51.277Z,31.80
2017-12-16T00:43:51.269Z,32.40
2017-12-16T00:44:51.252Z,32.00
2017-12-16T00:45:51.239Z,31.10
2017-12-16T00:46:51.231Z,30.60
2017-12-16T00:47:51.215Z,30.60
2017-12-16T00:48:51.203Z,31.50
2017-12-16T00:49:51.189Z,32.00
2017-12-16T00:50:51.173Z,30.20
2017-12-16T00:51:51.161Z,30.30
2017-12-16T00:52:51.149Z,31.30
2017-12-16T00:53:51.134Z,31.60
2017-12-16T00:54:51.123Z,31.40
2017-12-16T00:55:51.110Z,31.60
2017-12-16T00:56:51.098Z,32.60
2017-12-16T00:57:51.085Z,32.20
2017-12-16T00:58:51.077Z,32.10
2017-12-16T00:59:51.064Z,31.20
2017-12-16T01:00:51.053Z,31.30
2017-12-16T01:01:51.039Z,31.20
2017-12-16T01:02:51.028Z,32.00
2017-12-16T01:03:51.014Z,31.60
2017-12-16T01:04:51.003Z,31.70
2017-12-16T01:05:50.989Z,31.30
2017-12-16T01:06:50.976Z,32.20
2017-12-16T01:07:50.962Z,33.10
2017-12-16T01:08:50.949Z,33.10
2017-12-16T01:09:50.936Z,32.80
2017-12-16T01:10:50.927Z,32.80
2017-12-16T01:11:50.915Z,31.80
2017-12-16T01:12:50.903Z,33.20
2017-12-16T01:13:50.890Z,32.60
2017-12-16T01:14:50.873Z,32.00
2017-12-16T01:15:50.862Z,32.50
2017-12-16T01:16:50.851Z,30.80
2017-12-16T01:17:50.837Z,31.40
2017-12-16T01:18:50.825Z,32.20
2017-12-16T01:19:50.812Z,31.60
2017-12-16T01:20:50.800Z,30.70
2017-12-16T01:21:50.788Z,31.60
2017-12-16T01:22:50.779Z,31.20
2017-12-16T01:23:50.766Z,31.40
2017-12-16T01:24:50.759Z,31.70
2017-12-16T01:25:50.741Z,32.10
2017-12-16T01:26:50.730Z,31.90
2017-12-16T01:27:50.717Z,32.40
2017-12-16T01:28:50.705Z,31.70
2017-12-16T01:29:50.693Z,31.30
2017-12-16T01:30:50.676Z,31.60
2017-12-16T01:31:50.664Z,31.30
2017-12-16T01:32:50.652Z,32.00
2017-12-16T01:33:50.640Z,31.90
2017-12-16T01:34:50.627Z,31.10
2017-12-16T01:35:50.615Z,33.40
2017-12-16T01:36:50.602Z,32.00
2017-12-16T01:37:50.589Z,32.00
2017-12-16T01:38:50.582Z,32.00
2017-12-16T01:39:50.570Z,32.80
2017-12-16T01:40:50.558Z,32.50
2017-12-16T01:41:50.544Z,33.90
2017-12-16T01:42:50.532Z,33.10
2017-12-16T01:43:50.521Z,33.70
2017-12-16T01:44:50.515Z,33.50
2017-12-16T01:45:50.498Z,32.70
2017-12-16T01:46:50.480Z,31.50
2017-12-16T01:47:50.467Z,34.20
2017-12-16T01:48:50.455Z,31.90
2017-12-16T01:49:50.445Z,33.40
2017-12-16T01:50:50.431Z,30.60
2017-12-16T01:51:50.417Z,33.70
2017-12-16T01:52:50.407Z,32.40
2017-12-16T01:53:50.393Z,32.60
2017-12-16T01:54:50.389Z,33.90
2017-12-16T01:55:50.373Z,33.60
2017-12-16T01:56:50.361Z,33.30
2017-12-16T01:57:50.347Z,32.20
2017-12-16T01:58:50.335Z,32.90
2017-12-16T01:59:50.323Z,33.00
2017-12-16T02:00:50.315Z,32.80
2017-12-16T02:01:50.298Z,32.20
2017-12-16T02:02:50.283Z,33.60
2017-12-16T02:03:50.269Z,32.60
2017-12-16T02:04:50.258Z,34.00
2017-12-16T02:05:50.245Z,32.90
2017-12-16T02:06:50.232Z,32.70
2017-12-16T02:07:50.219Z,32.30
2017-12-16T02:08:50.209Z,33.20
2017-12-16T02:09:50.196Z,32.40
2017-12-16T02:10:50.191Z,31.50
2017-12-16T02:11:50.176Z,32.10
2017-12-16T02:12:50.163Z,32.20
2017-12-16T02:13:50.150Z,32.60
2017-12-16T02:14:50.134Z,31.80
2017-12-16T02:15:50.123Z,33.00
2017-12-16T02:16:50.110Z,32.60
2017-12-16T02:17:50.096Z,32.70
2017-12-16T02:18:50.090Z,30.50
2017-12-16T02:19:50.076Z,31.60
2017-12-16T02:20:50.065Z,30.40
2017-12-16T02:21:50.052Z,30.70
2017-12-16T02:22:50.040Z,31.20
2017-12-16T02:23:50.028Z,31.60
2017-12-16T02:24:50.016Z,31.60
2017-12-16T02:25:50.003Z,32.50
2017-12-16T02:26:49.986Z,32.00
2017-12-16T02:27:49.975Z,31.60
2017-12-16T02:28:49.963Z,31.60
2017-12-16T02:29:49.950Z,31.40
2017-12-16T02:30:49.937Z,32.60
2017-12-16T02:31:49.926Z,30.20
2017-12-16T02:32:49.923Z,31.60
2017-12-16T02:33:49.903Z,32.20
2017-12-16T02:34:49.901Z,33.20
2017-12-16T02:35:49.880Z,32.60
2017-12-16T02:36:49.868Z,32.60
2017-12-16T02:37:49.856Z,32.50
2017-12-16T02:38:49.842Z,32.80
2017-12-16T02:39:49.833Z,32.50
2017-12-16T02:40:49.819Z,34.50
2017-12-16T02:41:49.808Z,31.90
2017-12-16T02:42:49.790Z,33.60
2017-12-16T02:43:49.780Z,32.30
2017-12-16T02:44:49.767Z,33.10
2017-12-16T02:45:49.758Z,33.80
2017-12-16T02:46:49.741Z,31.80
2017-12-16T02:47:49.729Z,32.40
2017-12-16T02:48:49.717Z,33.70
2017-12-16T02:49:49.705Z,33.80
2017-12-16T02:50:49.697Z,35.30
2017-12-16T02:51:49.685Z,33.50
2017-12-16T02:52:49.674Z,33.00
2017-12-16T02:53:49.661Z,34.10
2017-12-16T02:54:49.647Z,33.80
2017-12-16T02:55:49.636Z,31.90
2017-12-16T02:56:49.624Z,33.80
2017-12-16T02:57:49.611Z,32.90
2017-12-16T02:58:49.596Z,32.70
2017-12-16T02:59:49.583Z,33.20
2017-12-16T03:00:49.571Z,32.30
2017-12-16T03:01:49.558Z,33.00
2017-12-16T03:02:49.546Z,34.80
2017-12-16T03:03:49.534Z,34.80
2017-12-16T03:04:49.523Z,33.30
2017-12-16T03:05:49.509Z,33.70
2017-12-16T03:06:49.502Z,33.70
2017-12-16T03:07:49.490Z,32.50
2017-12-16T03:08:49.477Z,33.20
2017-12-16T03:09:49.463Z,34.40
2017-12-16T03:10:49.452Z,34.20
2017-12-16T03:11:49.451Z,34.20
2017-12-16T03:12:49.429Z,32.90
2017-12-16T03:13:49.414Z,34.20
2017-12-16T03:14:49.405Z,34.90
2017-12-16T03:15:49.385Z,34.20
2017-12-16T03:16:49.372Z,34.20
2017-12-16T03:17:49.360Z,35.70
2017-12-16T03:18:49.348Z,34.20
2017-12-16T03:19:49.334Z,35.10
2017-12-16T03:20:49.323Z,34.80
2017-12-16T03:21:49.309Z,33.10
2017-12-16T03:22:49.300Z,35.10
2017-12-16T03:23:49.289Z,35.40
2017-12-16T03:24:49.277Z,35.50
2017-12-16T03:25:49.265Z,35.00
2017-12-16T03:26:49.252Z,34.30
2017-12-16T03:27:49.239Z,36.80
2017-12-16T03:28:49.226Z,35.40
2017-12-16T03:29:49.212Z,35.10
2017-12-16T03:30:49.197Z,34.80
2017-12-16T03:31:49.184Z,37.20
2017-12-16T03:32:49.170Z,36.70
2017-12-16T03:33:49.157Z,37.00
2017-12-16T03:34:49.146Z,34.90
2017-12-16T03:35:49.131Z,38.10
2017-12-16T03:36:49.119Z,36.10
2017-12-16T03:37:49.106Z,37.30
2017-12-16T03:38:49.098Z,36.20
2017-12-16T03:39:49.086Z,35.30
2017-12-16T03:40:49.073Z,36.50
2017-12-16T03:41:49.058Z,35.10
2017-12-16T03:42:49.052Z,35.70
2017-12-16T03:43:49.033Z,33.80
2017-12-16T03:44:49.020Z,34.90
2017-12-16T03:45:49.007Z,34.20
2017-12-16T03:46:48.990Z,35.40
2017-12-16T03:47:48.976Z,32.50
2017-12-16T03:48:48.964Z,34.60
2017-12-16T03:49:48.952Z,34.90
2017-12-16T03:50:48.937Z,33.70
2017-12-16T03:51:48.925Z,32.90
2017-12-16T03:52:48.916Z,33.80
2017-12-16T03:53:48.899Z,33.30
2017-12-16T03:54:48.891Z,33.30
2017-12-16T03:55:48.876Z,32.70
2017-12-16T03:56:48.866Z,33.30
2017-12-16T03:57:48.852Z,32.70
2017-12-16T03:58:48.838Z,33.60
2017-12-16T03:59:48.827Z,32.60
2017-12-16T04:00:48.815Z,34.50
2017-12-16T04:01:48.800Z,31.80
2017-12-16T04:02:48.782Z,30.80
2017-12-16T04:03:48.771Z,31.10
2017-12-16T04:04:48.757Z,31.30
2017-12-16T04:05:48.745Z,33.80
2017-12-16T04:06:48.739Z,32.60
2017-12-16T04:07:48.720Z,32.30
2017-12-16T04:08:48.707Z,30.20
2017-12-16T04:09:48.694Z,30.90
2017-12-16T04:10:48.685Z,32.10
2017-12-16T04:11:48.672Z,33.00
2017-12-16T04:12:48.661Z,32.50
2017-12-16T04:13:48.647Z,32.10
2017-12-16T04:14:48.635Z,30.90
2017-12-16T04:15:48.623Z,32.30
2017-12-16T04:16:48.614Z,32.80
2017-12-16T04:17:48.595Z,33.80
2017-12-16T04:18:48.578Z,32.50
2017-12-16T04:19:48.605Z,32.50
2017-12-16T04:20:48.557Z,33.00
2017-12-16T04:21:48.541Z,31.40
2017-12-16T04:22:48.532Z,33.50
2017-12-16T04:23:48.521Z,32.70
2017-12-16T04:24:48.508Z,34.20
2017-12-16T04:25:48.496Z,34.00
2017-12-16T04:26:48.479Z,31.90
2017-12-16T04:27:48.467Z,34.00
2017-12-16T04:28:48.458Z,35.90
2017-12-16T04:29:48.441Z,33.50
2017-12-16T04:30:48.428Z,36.40
2017-12-16T04:31:48.416Z,36.90
2017-12-16T04:32:48.404Z,36.20
2017-12-16T04:33:48.391Z,37.10
2017-12-16T04:34:48.383Z,37.50
2017-12-16T04:35:48.370Z,36.70
2017-12-16T04:36:48.359Z,38.20
2017-12-16T04:37:48.345Z,37.10
2017-12-16T04:38:48.333Z,38.60
2017-12-16T04:39:48.320Z,37.70
2017-12-16T04:40:48.308Z,37.30
2017-12-16T04:41:48.294Z,36.80
2017-12-16T04:42:48.278Z,40.40
2017-12-16T04:43:48.265Z,41.50
2017-12-16T04:44:48.253Z,43.70
2017-12-16T04:45:48.240Z,42.30
2017-12-16T04:46:48.229Z,42.50
2017-12-16T04:47:48.217Z,41.20
2017-12-16T04:48:48.204Z,40.40
2017-12-16T04:49:48.192Z,39.70
2017-12-16T04:50:48.201Z,41.00
2017-12-16T04:51:48.171Z,43.80
2017-12-16T04:52:48.157Z,42.00
2017-12-16T04:53:48.145Z,42.50
2017-12-16T04:54:48.133Z,42.80
2017-12-16T04:55:48.120Z,44.10
2017-12-16T04:56:48.109Z,40.10
2017-12-16T04:57:48.095Z,42.70
2017-12-16T04:58:48.079Z,42.40
2017-12-16T04:59:48.067Z,43.70
2017-12-16T05:00:48.055Z,45.30
2017-12-16T05:01:48.040Z,45.90
2017-12-16T05:02:48.029Z,44.50
2017-12-16T05:03:48.018Z,44.00
2017-12-16T05:04:48.005Z,42.00
2017-12-16T05:05:47.992Z,44.50
2017-12-16T05:06:47.984Z,44.30
2017-12-16T05:07:47.972Z,44.60
2017-12-16T05:08:47.958Z,45.40
2017-12-16T05:09:47.946Z,48.30
2017-12-16T05:10:47.956Z,45.90
2017-12-16T05:11:47.923Z,47.20
2017-12-16T05:12:47.911Z,44.70
2017-12-16T05:13:47.897Z,47.70
2017-12-16T05:14:47.880Z,49.30
2017-12-16T05:15:47.871Z,47.40
2017-12-16T05:16:47.857Z,46.00
2017-12-16T05:17:47.843Z,48.90
2017-12-16T05:18:47.832Z,50.90
2017-12-16T05:19:47.819Z,50.80
2017-12-16T05:20:47.808Z,53.10
2017-12-16T05:21:47.794Z,51.70
2017-12-16T05:22:47.786Z,52.10
2017-12-16T05:23:47.774Z,52.70
2017-12-16T05:24:47.763Z,55.30
2017-12-16T05:25:47.749Z,54.60
2017-12-16T05:26:47.732Z,55.50
2017-12-16T05:27:47.722Z,56.50
2017-12-16T05:28:47.709Z,54.60
2017-12-16T05:29:47.695Z,54.50
2017-12-16T05:30:47.687Z,54.70
2017-12-16T05:31:47.676Z,56.00
2017-12-16T05:32:47.664Z,55.10
2017-12-16T05:33:47.652Z,54.50
2017-12-16T05:34:47.639Z,52.90
2017-12-16T05:35:47.626Z,50.70
2017-12-16T05:36:47.616Z,52.20
2017-12-16T05:37:47.601Z,50.70
2017-12-16T05:38:47.585Z,53.70
2017-12-16T05:39:47.593Z,54.80
2017-12-16T05:40:47.562Z,55.50
2017-12-16T05:41:47.550Z,53.00
2017-12-16T05:42:47.538Z,53.90
2017-12-16T05:43:47.526Z,51.80
2017-12-16T05:44:47.524Z,53.20
2017-12-16T05:45:47.501Z,54.40
2017-12-16T05:46:47.493Z,53.60
2017-12-16T05:47:47.482Z,53.90
2017-12-16T05:48:47.477Z,52.00
2017-12-16T05:49:47.457Z,53.20
2017-12-16T05:50:47.444Z,55.90
2017-12-16T05:51:47.433Z,52.80
2017-12-16T05:52:47.420Z,55.00
2017-12-16T05:53:47.407Z,53.50
2017-12-16T05:54:47.392Z,51.80
2017-12-16T05:55:47.379Z,54.10
2017-12-16T05:56:47.369Z,53.50
2017-12-16T05:57:47.356Z,53.90
2017-12-16T05:58:47.344Z,53.30
2017-12-16T05:59:47.332Z,54.80
2017-12-16T06:00:47.322Z,54.60
2017-12-16T06:01:47.307Z,54.10
2017-12-16T06:02:47.298Z,52.10
2017-12-16T06:03:47.289Z,52.50
2017-12-16T06:04:47.277Z,53.70
2017-12-16T06:05:47.264Z,53.50
2017-12-16T06:06:47.252Z,54.00
2017-12-16T06:07:47.241Z,52.40
2017-12-16T06:08:47.228Z,52.20
2017-12-16T06:09:47.216Z,50.20
2017-12-16T06:10:47.199Z,51.30
2017-12-16T06:11:47.188Z,52.20
2017-12-16T06:12:47.175Z,52.20
2017-12-16T06:13:47.163Z,51.70
2017-12-16T06:14:47.152Z,52.60
2017-12-16T06:15:47.139Z,53.80
2017-12-16T06:16:47.128Z,53.20
2017-12-16T06:17:47.116Z,54.00
2017-12-16T06:18:47.109Z,53.50
2017-12-16T06:19:47.096Z,52.80
2017-12-16T06:20:47.085Z,53.30
2017-12-16T06:21:47.072Z,52.10
2017-12-16T06:22:47.064Z,53.10
2017-12-16T06:23:47.051Z,54.10
2017-12-16T06:24:47.036Z,55.30
2017-12-16T06:25:47.024Z,57.10
2017-12-16T06:26:47.008Z,60.10
2017-12-16T06:27:46.996Z,58.50
2017-12-16T06:28:46.986Z,59.10
2017-12-16T06:29:46.973Z,61.80
2017-12-16T06:30:46.965Z,60.10
2017-12-16T06:31:46.953Z,60.60
2017-12-16T06:32:46.942Z,61.70
2017-12-16T06:33:46.930Z,63.30
2017-12-16T06:34:46.912Z,63.00
2017-12-16T06:35:46.902Z,63.40
2017-12-16T06:36:46.889Z,62.30
2017-12-16T06:37:46.877Z,61.40
2017-12-16T06:38:46.866Z,65.70
2017-12-16T06:39:46.854Z,63.30
2017-12-16T06:40:46.841Z,62.10
2017-12-16T06:41:46.829Z,61.60
2017-12-16T06:42:46.822Z,63.60
2017-12-16T06:43:46.810Z,65.40
2017-12-16T06:44:46.797Z,65.70
2017-12-16T06:45:46.786Z,65.30
2017-12-16T06:46:46.777Z,63.50
2017-12-16T06:47:46.762Z,63.40
2017-12-16T06:48:46.751Z,65.00
2017-12-16T06:49:46.738Z,64.70
2017-12-16T06:50:46.724Z,65.80
2017-12-16T06:51:46.710Z,62.20
2017-12-16T06:52:46.697Z,62.70
2017-12-16T06:53:46.686Z,66.00
2017-12-16T06:54:46.674Z,64.60
2017-12-16T06:55:46.661Z,63.90
2017-12-16T06:56:46.651Z,63.80
2017-12-16T06:57:46.638Z,65.30
2017-12-16T06:58:46.630Z,63.90
2017-12-16T06:59:46.619Z,63.60
2017-12-16T07:00:46.606Z,62.90
2017-12-16T07:01:46.593Z,63.30
2017-12-16T07:02:46.583Z,62.70
2017-12-16T07:03:46.571Z,63.70
2017-12-16T07:04:46.558Z,65.00
2017-12-16T07:05:46.545Z,64.40
2017-12-16T07:06:46.530Z,64.60
2017-12-16T07:07:46.573Z,62.90
2017-12-16T07:08:46.507Z,64.40
2017-12-16T07:09:46.495Z,63.10
2017-12-16T07:10:46.482Z,64.50
2017-12-16T07:11:46.470Z,62.60
2017-12-16T07:12:46.464Z,65.00
2017-12-16T07:13:46.445Z,61.30
2017-12-16T07:14:46.479Z,64.20
2017-12-16T07:15:46.425Z,64.20
2017-12-16T07:16:46.414Z,63.50
2017-12-16T07:17:46.401Z,59.40
2017-12-16T07:18:46.388Z,60.90
2017-12-16T07:19:46.377Z,62.00
2017-12-16T07:20:46.365Z,62.40
2017-12-16T07:21:46.351Z,62.60
2017-12-16T07:22:46.336Z,63.50
2017-12-16T07:23:46.325Z,60.30
2017-12-16T07:24:46.313Z,60.40
2017-12-16T07:25:46.299Z,62.90
2017-12-16T07:26:46.287Z,59.30
2017-12-16T07:27:46.276Z,60.30
2017-12-16T07:28:46.262Z,61.50
2017-12-16T07:29:46.251Z,61.30
2017-12-16T07:30:46.244Z,60.40
2017-12-16T07:31:46.231Z,61.40
2017-12-16T07:32:46.218Z,62.30
2017-12-16T07:33:46.205Z,61.30
2017-12-16T07:34:46.195Z,60.90
2017-12-16T07:35:46.181Z,63.30
2017-12-16T07:36:46.170Z,61.90
2017-12-16T07:37:46.157Z,60.40
2017-12-16T07:38:46.141Z,59.90
2017-12-16T07:39:46.128Z,62.40
2017-12-16T07:40:46.118Z,60.40
2017-12-16T07:41:46.104Z,61.20
2017-12-16T07:42:46.091Z,61.80
2017-12-16T07:43:46.079Z,60.40
2017-12-16T07:44:46.066Z,60.30
2017-12-16T07:45:46.054Z,62.50
2017-12-16T07:46:46.046Z,60.20
2017-12-16T07:47:46.034Z,58.90
2017-12-16T07:48:46.021Z,60.90
2017-12-16T07:49:46.008Z,61.00
2017-12-16T07:50:46.000Z,60.50
2017-12-16T07:51:45.983Z,60.10
2017-12-16T07:52:45.977Z,59.40
2017-12-16T07:53:45.958Z,61.00
2017-12-16T07:54:45.941Z,58.10
2017-12-16T07:55:45.929Z,62.00
2017-12-16T07:56:45.917Z,59.50
2017-12-16T07:57:45.909Z,57.80
2017-12-16T07:58:45.892Z,58.40
2017-12-16T07:59:45.878Z,58.90
2017-12-16T08:00:45.867Z,55.60
2017-12-16T08:01:45.853Z,57.30
2017-12-16T08:02:45.845Z,56.60
2017-12-16T08:03:45.838Z,55.40
2017-12-16T08:04:45.824Z,54.00
2017-12-16T08:05:45.808Z,55.20
2017-12-16T08:06:45.795Z,53.70
2017-12-16T08:07:45.784Z,53.30
2017-12-16T08:08:45.772Z,51.10
2017-12-16T08:09:45.766Z,52.80
2017-12-16T08:10:45.741Z,51.90
2017-12-16T08:11:45.730Z,53.10
2017-12-16T08:12:45.718Z,51.90
2017-12-16T08:13:45.704Z,50.80
2017-12-16T08:14:45.694Z,52.00
2017-12-16T08:15:45.680Z,50.60
2017-12-16T08:16:45.670Z,52.40
2017-12-16T08:17:45.661Z,51.10
2017-12-16T08:18:45.648Z,50.10
2017-12-16T08:19:45.637Z,49.40
2017-12-16T08:20:45.623Z,47.80
2017-12-16T08:21:45.611Z,48.90
2017-12-16T08:22:45.600Z,48.00
2017-12-16T08:23:45.589Z,48.70
2017-12-16T08:24:45.577Z,48.60
2017-12-16T08:25:45.563Z,48.70
2017-12-16T08:26:45.548Z,49.80
2017-12-16T08:27:45.535Z,49.70
2017-12-16T08:28:45.522Z,50.30
2017-12-16T08:29:45.510Z,50.30
2017-12-16T08:30:45.498Z,48.10
2017-12-16T08:31:45.487Z,48.40
2017-12-16T08:32:45.474Z,49.70
2017-12-16T08:33:45.461Z,50.10
2017-12-16T08:34:45.455Z,47.10
2017-12-16T08:35:45.444Z,48.20
2017-12-16T08:36:45.431Z,47.40
2017-12-16T08:37:45.418Z,48.20
2017-12-16T08:38:45.449Z,48.90
2017-12-16T08:39:45.390Z,46.90
2017-12-16T08:40:45.378Z,45.90
2017-12-16T08:41:45.371Z,47.30
2017-12-16T08:42:45.357Z,46.50
2017-12-16T08:43:45.346Z,44.00
2017-12-16T08:44:45.333Z,45.60
2017-12-16T08:45:45.320Z,43.90
2017-12-16T08:46:45.309Z,45.00
2017-12-16T08:47:45.296Z,43.80
2017-12-16T08:48:45.285Z,43.50
2017-12-16T08:49:45.273Z,42.90
2017-12-16T08:50:45.257Z,42.70
2017-12-16T08:51:45.246Z,43.30
2017-12-16T08:52:45.234Z,42.50
2017-12-16T08:53:45.221Z,42.80
2017-12-16T08:54:45.209Z,41.90
2017-12-16T08:55:45.197Z,41.10
2017-12-16T08:56:45.186Z,42.10
2017-12-16T08:57:45.174Z,40.20
2017-12-16T08:58:45.167Z,38.80
2017-12-16T08:59:45.156Z,40.50
2017-12-16T09:00:45.144Z,40.20
2017-12-16T09:01:45.132Z,39.90
2017-12-16T09:02:45.120Z,40.80
2017-12-16T09:03:45.108Z,41.00
2017-12-16T09:04:45.097Z,39.80
2017-12-16T09:05:45.086Z,40.10
2017-12-16T09:06:45.070Z,40.20
2017-12-16T09:07:45.058Z,40.50
2017-12-16T09:08:45.047Z,40.60
2017-12-16T09:09:45.036Z,40.20
2017-12-16T09:10:45.026Z,39.20
2017-12-16T09:11:45.015Z,39.90
2017-12-16T09:12:45.003Z,38.70
2017-12-16T09:13:44.992Z,36.60
2017-12-16T09:14:44.985Z,37.60
2017-12-16T09:15:44.975Z,37.20
2017-12-16T09:16:44.965Z,37.20
2017-12-16T09:17:44.954Z,36.10
2017-12-16T09:18:44.943Z,36.20
2017-12-16T09:19:44.933Z,34.90
2017-12-16T09:20:44.923Z,34.50
2017-12-16T09:21:44.912Z,34.00
2017-12-16T09:22:44.898Z,34.10
2017-12-16T09:23:44.893Z,36.40
2017-12-16T09:24:44.879Z,33.80
2017-12-16T09:25:44.869Z,33.90
2017-12-16T09:26:44.859Z,33.90
2017-12-16T09:27:44.850Z,33.70
2017-12-16T09:28:44.841Z,32.70
2017-12-16T09:29:44.830Z,33.00
2017-12-16T09:30:44.826Z,33.70
2017-12-16T09:31:44.817Z,32.90
2017-12-16T09:32:44.808Z,33.60
2017-12-16T09:33:44.797Z,32.90
2017-12-16T09:34:44.789Z,32.70
2017-12-16T09:35:44.780Z,33.80
2017-12-16T09:36:44.771Z,33.50
2017-12-16T09:37:44.761Z,32.30
2017-12-16T09:38:44.747Z,33.10
2017-12-16T09:39:44.739Z,33.40
2017-12-16T09:40:44.730Z,32.60
2017-12-16T09:41:44.720Z,31.40
2017-12-16T09:42:44.715Z,30.70
2017-12-16T09:43:44.705Z,30.80
2017-12-16T09:44:44.698Z,30.90
2017-12-16T09:45:44.688Z,30.10
2017-12-16T09:46:44.678Z,29.90
2017-12-16T09:47:44.667Z,30.00
2017-12-16T09:48:44.658Z,31.50
2017-12-16T09:49:44.650Z,30.40
2017-12-16T09:50:44.640Z,30.50
2017-12-16T09:51:44.631Z,29.80
2017-12-16T09:52:44.624Z,30.70
2017-12-16T09:53:44.612Z,29.30
2017-12-16T09:54:44.608Z,29.80
2017-12-16T09:55:44.599Z,28.30
2017-12-16T09:56:44.591Z,26.70
2017-12-16T09:57:44.582Z,27.20
2017-12-16T09:58:44.573Z,26.90
2017-12-16T09:59:44.628Z,24.80
2017-12-16T10:00:44.559Z,24.80
2017-12-16T10:01:44.551Z,24.70
2017-12-16T10:02:44.541Z,24.40
2017-12-16T10:03:44.536Z,23.10
2017-12-16T10:04:44.527Z,23.40
2017-12-16T10:05:44.521Z,23.00
2017-12-16T10:06:44.521Z,23.30
2017-12-16T10:07:44.510Z,22.00
2017-12-16T10:08:44.506Z,22.40
2017-12-16T10:09:44.500Z,22.60
2017-12-16T10:10:44.502Z,22.10
2017-12-16T10:11:44.496Z,22.10
2017-12-16T10:12:44.492Z,22.10
2017-12-16T10:13:44.487Z,22.10
2017-12-16T10:14:44.542Z,22.50
2017-12-16T10:15:44.481Z,21.10
2017-12-16T10:16:44.477Z,21.20
2017-12-16T10:17:44.474Z,21.60
2017-12-16T10:18:44.466Z,22.90
2017-12-16T10:19:44.465Z,24.10
2017-12-16T10:20:44.463Z,24.30
2017-12-16T10:21:44.460Z,24.70
2017-12-16T10:22:44.458Z,24.30
2017-12-16T10:23:44.456Z,24.00
2017-12-16T10:24:44.454Z,23.50
2017-12-16T10:25:44.451Z,24.60
2017-12-16T10:26:44.452Z,23.40
2017-12-16T10:27:44.452Z,23.20
2017-12-16T10:28:44.448Z,23.20
2017-12-16T10:29:44.445Z,22.90
2017-12-16T10:30:44.444Z,23.20
2017-12-16T10:31:44.441Z,20.00
2017-12-16T10:32:44.442Z,20.10
2017-12-16T10:33:44.439Z,20.00
2017-12-16T10:34:44.433Z,20.40
2017-12-16T10:35:44.435Z,20.90
2017-12-16T10:36:44.434Z,20.50
2017-12-16T10:37:44.431Z,20.60
2017-12-16T10:38:44.433Z,20.10
2017-12-16T10:39:44.430Z,19.70
2017-12-16T10:40:44.429Z,19.50
2017-12-16T10:41:44.428Z,19.70
2017-12-16T10:42:44.431Z,18.90
2017-12-16T10:43:44.432Z,19.10
2017-12-16T10:44:44.430Z,19.50
2017-12-16T10:45:44.431Z,19.70
2017-12-16T10:46:44.425Z,19.90
2017-12-16T10:47:44.429Z,19.80
2017-12-16T10:48:44.426Z,19.90
2017-12-16T10:49:44.424Z,20.10
2017-12-16T10:50:44.428Z,19.20
2017-12-16T10:51:44.429Z,20.00
2017-12-16T10:52:44.430Z,20.00
2017-12-16T10:53:44.427Z,20.10
2017-12-16T10:54:44.428Z,19.40
2017-12-16T10:55:44.429Z,19.60
2017-12-16T10:56:44.429Z,19.80
2017-12-16T10:57:44.432Z,19.80
2017-12-16T10:58:44.424Z,18.90
2017-12-16T10:59:44.425Z,19.80
2017-12-16T11:00:44.424Z,20.10
2017-12-16T11:01:44.425Z,20.10
2017-12-16T11:02:44.423Z,20.20
2017-12-16T11:03:44.426Z,20.30
2017-12-16T11:04:44.423Z,19.90
2017-12-16T11:05:44.422Z,20.40
2017-12-16T11:06:44.424Z,20.30
2017-12-16T11:07:44.423Z,19.70
2017-12-16T11:08:44.422Z,19.70
2017-12-16T11:09:44.420Z,20.30
2017-12-16T11:10:44.421Z,19.40
2017-12-16T11:11:44.417Z,20.30
2017-12-16T11:12:44.414Z,20.20
2017-12-16T11:13:44.411Z,20.00
2017-12-16T11:14:44.405Z,19.80
2017-12-16T11:15:44.402Z,19.40
2017-12-16T11:16:44.399Z,18.90
2017-12-16T11:17:44.395Z,19.70
2017-12-16T11:18:44.407Z,19.10
2017-12-16T11:19:44.392Z,19.40
2017-12-16T11:20:44.391Z,19.50
2017-12-16T11:21:44.386Z,19.90
2017-12-16T11:22:44.389Z,20.00
2017-12-16T11:23:44.387Z,19.70
2017-12-16T11:24:44.385Z,19.40
2017-12-16T11:25:44.381Z,19.70
2017-12-16T11:26:44.379Z,19.50
2017-12-16T11:27:44.377Z,19.80
2017-12-16T11:28:44.376Z,18.60
2017-12-16T11:29:44.371Z,19.10
2017-12-16T11:30:44.362Z,18.60
2017-12-16T11:31:44.361Z,18.70
2017-12-16T11:32:44.365Z,18.60
2017-12-16T11:33:44.353Z,18.60
2017-12-16T11:34:44.353Z,18.40
2017-12-16T11:35:44.348Z,18.20
2017-12-16T11:36:44.343Z,19.10
2017-12-16T11:37:44.338Z,18.70
2017-12-16T11:38:44.341Z,18.70
2017-12-16T11:39:44.337Z,19.00
2017-12-16T11:40:44.333Z,18.80
2017-12-16T11:41:44.328Z,18.70
2017-12-16T11:42:44.324Z,18.50
2017-12-16T11:43:44.320Z,18.30
2017-12-16T11:44:44.316Z,19.40
2017-12-16T11:45:44.309Z,19.00
2017-12-16T11:46:44.302Z,18.00
2017-12-16T11:47:44.296Z,18.60
2017-12-16T11:48:44.295Z,18.60
2017-12-16T11:49:44.287Z,19.90
2017-12-16T11:50:44.285Z,18.70
2017-12-16T11:51:44.280Z,19.00
2017-12-16T11:52:44.275Z,18.70
2017-12-16T11:53:44.268Z,18.30
2017-12-16T11:54:44.258Z,18.10
2017-12-16T11:55:44.254Z,18.60
2017-12-16T11:56:44.246Z,19.60
2017-12-16T11:57:44.244Z,18.60
2017-12-16T11:58:44.234Z,19.80
2017-12-16T11:59:44.229Z,17.80
2017-12-16T12:00:44.223Z,18.60
2017-12-16T12:01:44.215Z,18.40
2017-12-16T12:02:44.214Z,18.30
2017-12-16T12:03:44.209Z,18.60
2017-12-16T12:04:44.202Z,18.70
2017-12-16T12:05:44.196Z,18.40
2017-12-16T12:06:44.190Z,18.10
2017-12-16T12:07:44.183Z,18.10
2017-12-16T12:08:44.179Z,18.30
2017-12-16T12:09:44.179Z,18.10
2017-12-16T12:10:44.162Z,18.90
2017-12-16T12:11:44.155Z,18.20
2017-12-16T12:12:44.150Z,18.50
2017-12-16T12:13:44.142Z,17.80
2017-12-16T12:14:44.136Z,18.40
2017-12-16T12:15:44.130Z,18.00
2017-12-16T12:16:44.123Z,18.00
2017-12-16T12:17:44.117Z,18.80
2017-12-16T12:18:44.115Z,18.50
2017-12-16T12:19:44.111Z,19.00
2017-12-16T12:20:44.103Z,17.90
2017-12-16T12:21:44.096Z,18.40
2017-12-16T12:22:44.090Z,18.00
2017-12-16T12:23:44.082Z,17.50
2017-12-16T12:24:44.078Z,17.30
2017-12-16T12:25:44.070Z,17.90
2017-12-16T12:26:44.059Z,17.40
2017-12-16T12:27:44.053Z,17.50
2017-12-16T12:28:44.046Z,16.40
2017-12-16T12:29:44.040Z,16.50
2017-12-16T12:30:44.033Z,17.10
2017-12-16T12:31:44.027Z,16.70
2017-12-16T12:32:44.020Z,16.90
2017-12-16T12:33:44.014Z,16.80
2017-12-16T12:34:44.011Z,16.90
2017-12-16T12:35:44.004Z,16.30
2017-12-16T12:36:43.999Z,17.40
2017-12-16T12:37:43.991Z,16.40
2017-12-16T12:38:43.984Z,16.20
2017-12-16T12:39:43.979Z,16.20
2017-12-16T12:40:43.970Z,16.40
2017-12-16T12:41:43.964Z,16.40
2017-12-16T12:42:43.955Z,16.80
2017-12-16T12:43:43.947Z,16.40
2017-12-16T12:44:43.939Z,16.60
2017-12-16T12:45:43.932Z,16.90
2017-12-16T12:46:43.925Z,16.30
2017-12-16T12:47:43.919Z,16.60
2017-12-16T12:48:43.912Z,16.90
2017-12-16T12:49:43.904Z,17.10
2017-12-16T12:50:43.901Z,16.90
2017-12-16T12:51:43.894Z,16.50
2017-12-16T12:52:43.887Z,17.00